createdAt,value
2019-05-17T00:03:33.541Z,44.4
2019-05-17T00:08:34.675Z,44.4
2019-05-17T00:13:35.126Z,44.3
2019-05-17T00:18:36.989Z,44.2
2019-05-17T00:23:37.571Z,44.2
2019-05-17T00:28:37.772Z,44.1
2019-05-17T00:33:37.938Z,44
2019-05-17T00:38:47.507Z,43.9
2019-05-17T00:43:48.313Z,43.9
2019-05-17T00:48:48.478Z,43.8
2019-05-17T00:53:48.651Z,43.7
2019-05-17T00:58:48.805Z,43.7
2019-05-17T01:03:48.949Z,43.6
2019-05-17T01:09:00.460Z,43.5
2019-05-17T01:14:01.122Z,43.4
2019-05-17T01:19:01.282Z,43.4
2019-05-17T01:24:01.428Z,43.3
2019-05-17T01:29:03.247Z,43.3
2019-05-17T01:34:03.401Z,43.2
2019-05-17T01:39:15.098Z,43.1
2019-05-17T01:44:19.111Z,43.1
2019-05-17T01:49:20.913Z,43
2019-05-17T01:54:22.727Z,42.9
2019-05-17T01:59:22.871Z,42.9
2019-05-17T02:04:26.720Z,42.8
2019-05-17T02:09:36.887Z,42.7
2019-05-17T02:14:37.615Z,42.7
2019-05-17T02:19:39.457Z,42.6
2019-05-17T02:24:41.265Z,42.6
2019-05-17T02:29:43.079Z,42.5
2019-05-17T02:34:44.889Z,42.4
2019-05-17T02:39:57.882Z,42.4
2019-05-17T02:45:03.951Z,42.3
2019-05-17T02:50:06.037Z,42.2
2019-05-17T02:55:07.931Z,42.2
2019-05-17T03:00:12.960Z,42.1
2019-05-17T03:05:14.190Z,42.1
2019-05-17T03:10:23.489Z,42
2019-05-17T03:15:25.195Z,41.9
2019-05-17T03:20:26.954Z,41.9
2019-05-17T03:25:28.700Z,41.9
2019-05-17T03:30:36.285Z,41.8
2019-05-17T03:35:38.914Z,41.7
2019-05-17T03:41:06.603Z,41.7
2019-05-17T03:46:14.147Z,41.6
2019-05-17T03:51:16.036Z,41.6
2019-05-17T03:56:17.751Z,41.5
2019-05-17T04:01:19.496Z,41.4
2019-05-17T04:06:23.738Z,41.4
2019-05-17T04:11:31.697Z,41.3
2019-05-17T04:16:34.659Z,41.2
2019-05-17T04:21:36.399Z,41.2
2019-05-17T04:26:38.126Z,41.2
2019-05-17T04:31:43.067Z,41.1
2019-05-17T04:36:45.008Z,41.1
2019-05-17T04:41:49.886Z,41
2019-05-17T04:46:53.554Z,40.9
2019-05-17T04:51:55.536Z,40.9
2019-05-17T04:56:57.319Z,40.8
2019-05-17T05:01:59.091Z,40.8
2019-05-17T05:07:03.070Z,40.8
2019-05-17T05:12:06.046Z,40.7
2019-05-17T05:17:08.165Z,40.6
2019-05-17T05:22:12.938Z,40.6
2019-05-17T05:27:14.871Z,40.5
2019-05-17T05:32:16.630Z,40.5
2019-05-17T05:37:20.179Z,40.4
2019-05-17T05:42:24.757Z,40.4
2019-05-17T05:47:26.517Z,40.4
2019-05-17T05:52:28.262Z,40.3
2019-05-17T05:57:32.048Z,40.2
2019-05-17T06:02:34.070Z,40.2
2019-05-17T06:07:35.819Z,40.1
2019-05-17T06:12:37.575Z,40.1
2019-05-17T06:17:39.450Z,40.1
2019-05-17T06:22:42.715Z,40
2019-05-17T06:27:44.799Z,39.9
2019-05-17T06:32:45.631Z,39.9
2019-05-17T06:37:46.911Z,39.9
2019-05-17T06:42:48.643Z,39.8
2019-05-17T06:47:51.828Z,39.7
2019-05-17T06:52:53.635Z,39.7
2019-05-17T06:57:55.347Z,39.7
2019-05-17T07:02:57.075Z,39.6
2019-05-17T07:08:00.225Z,39.6
2019-05-17T07:13:02.187Z,39.6
2019-05-17T07:18:03.952Z,39.5
2019-05-17T07:23:04.725Z,39.5
2019-05-17T07:28:06.426Z,39.4
2019-05-17T07:33:10.038Z,39.4
2019-05-17T07:38:11.975Z,39.3
2019-05-17T07:43:14.801Z,39.3
2019-05-17T07:48:15.809Z,39.2
2019-05-17T07:53:16.560Z,39.2
2019-05-17T07:58:21.114Z,39.2
2019-05-17T08:03:24.777Z,39.1
2019-05-17T08:08:27.003Z,39.1
2019-05-17T08:13:31.029Z,39.1
2019-05-17T08:18:34.707Z,39
2019-05-17T08:23:36.427Z,38.9
2019-05-17T08:28:40.189Z,38.9
2019-05-17T08:33:42.053Z,38.9
2019-05-17T08:38:43.856Z,38.8
2019-05-17T08:43:46.773Z,38.8
2019-05-17T08:48:49.480Z,38.7
2019-05-17T08:53:51.248Z,38.7
2019-05-17T08:58:52.940Z,38.7
2019-05-17T09:03:54.640Z,38.6
2019-05-17T09:08:56.326Z,38.6
2019-05-17T09:14:01.199Z,38.6
2019-05-17T09:19:03.443Z,38.5
2019-05-17T09:24:05.373Z,38.5
2019-05-17T09:29:07.067Z,38.4
2019-05-17T09:34:09.627Z,38.4
2019-05-17T09:39:11.471Z,38.4
2019-05-17T09:44:16.228Z,38.3
2019-05-17T09:49:19.247Z,38.3
2019-05-17T09:54:27.742Z,38.2
2019-05-17T09:59:40.469Z,38.2
2019-05-17T10:04:42.345Z,38.2
2019-05-17T10:09:44.014Z,38.1
2019-05-17T10:14:45.656Z,38.1
2019-05-17T10:19:47.307Z,38.1
2019-05-17T10:24:48.978Z,38
2019-05-17T10:29:50.651Z,38
2019-05-17T10:34:52.314Z,37.9
2019-05-17T10:39:53.958Z,37.9
2019-05-17T10:44:55.602Z,37.9
2019-05-17T10:49:57.240Z,37.9
2019-05-17T10:54:59.793Z,37.8
2019-05-17T11:00:01.627Z,37.7
2019-05-17T11:05:03.247Z,37.7
2019-05-17T11:10:04.871Z,37.7
2019-05-17T11:15:11.298Z,37.7
2019-05-17T11:20:13.529Z,37.6
2019-05-17T11:25:15.163Z,37.6
2019-05-17T11:30:15.759Z,37.6
2019-05-17T11:35:17.654Z,37.5
2019-05-17T11:40:19.275Z,37.5
2019-05-17T11:45:27.553Z,37.4
2019-05-17T11:50:30.735Z,37.4
2019-05-17T11:55:32.497Z,37.4
2019-05-17T12:00:34.101Z,37.4
2019-05-17T12:05:35.709Z,37.3
2019-05-17T12:10:37.398Z,37.3
2019-05-17T12:15:44.696Z,37.2
2019-05-17T12:20:47.066Z,37.2
2019-05-17T12:25:48.676Z,37.2
2019-05-17T12:30:50.283Z,37.2
2019-05-17T12:35:51.896Z,37.1
2019-05-17T12:40:53.037Z,37.1
2019-05-17T12:46:00.446Z,37.1
2019-05-17T12:51:02.792Z,37
2019-05-17T12:56:04.407Z,37
2019-05-17T13:01:06.036Z,37
2019-05-17T13:06:07.676Z,36.9
2019-05-17T13:11:09.307Z,36.9
2019-05-17T13:16:17.749Z,36.9
2019-05-17T13:21:20.323Z,36.9
2019-05-17T13:26:21.993Z,36.8
2019-05-17T13:31:23.662Z,36.7
2019-05-17T13:36:25.309Z,36.7
2019-05-17T13:41:26.947Z,36.7
2019-05-17T13:46:32.986Z,36.7
2019-05-17T13:51:35.065Z,36.6
2019-05-17T13:56:36.723Z,36.6
2019-05-17T14:01:38.356Z,36.6
2019-05-17T14:06:40.214Z,36.6
2019-05-17T14:11:41.835Z,36.5
2019-05-17T14:16:43.447Z,36.5
2019-05-17T14:21:45.072Z,36.5
2019-05-17T14:26:46.701Z,36.4
2019-05-17T14:31:48.328Z,36.4
2019-05-17T14:36:49.963Z,36.4
2019-05-17T14:41:51.570Z,36.3
2019-05-17T14:46:52.230Z,36.3
2019-05-17T14:51:53.868Z,36.3
2019-05-17T14:56:55.500Z,36.2
2019-05-17T15:01:57.122Z,36.2
2019-05-17T15:06:58.727Z,36.2
2019-05-17T15:12:00.331Z,36.2
2019-05-17T15:17:02.003Z,36.2
2019-05-17T15:22:03.969Z,36.1
2019-05-17T15:27:06.405Z,38.2
2019-05-17T15:32:08.264Z,39.6
2019-05-17T15:37:10.012Z,40.6
2019-05-17T15:42:11.795Z,41.4
2019-05-17T15:47:13.562Z,42.2
2019-05-17T15:52:13.698Z,42.9
2019-05-17T15:57:13.849Z,43.5
2019-05-17T16:02:14.037Z,44.1
2019-05-17T16:07:14.242Z,44.5
2019-05-17T16:12:14.456Z,44.9
2019-05-17T16:17:14.682Z,45.2
2019-05-17T16:22:14.911Z,45.6
2019-05-17T16:27:15.175Z,45.8
2019-05-17T16:32:15.413Z,45.9
2019-05-17T16:37:16.022Z,46.1
2019-05-17T16:42:16.285Z,46.4
2019-05-17T16:47:16.610Z,46.7
2019-05-17T16:52:16.861Z,47.1
2019-05-17T16:57:17.100Z,47.2
2019-05-17T17:02:17.368Z,47.4
2019-05-17T17:07:17.647Z,47.6
2019-05-17T17:12:17.924Z,47.7
2019-05-17T17:17:18.217Z,47.7
2019-05-17T17:22:18.485Z,47.9
2019-05-17T17:27:18.768Z,47.9
2019-05-17T17:32:21.313Z,48
2019-05-17T17:37:22.087Z,48
2019-05-17T17:42:22.395Z,48
2019-05-17T17:47:22.709Z,48.1
2019-05-17T17:52:23.022Z,48.1
2019-05-17T17:57:23.338Z,48.1
2019-05-17T18:02:23.645Z,48.1
2019-05-17T18:07:23.957Z,48.2
2019-05-17T18:12:24.304Z,48.2
2019-05-17T18:17:24.649Z,48.2
2019-05-17T18:22:25.007Z,48.1
2019-05-17T18:27:25.520Z,48.1
2019-05-17T18:32:25.900Z,48.2
2019-05-17T18:37:26.962Z,48.2
2019-05-17T18:42:27.325Z,48.2
2019-05-17T18:47:27.623Z,48.2
2019-05-17T18:52:28.055Z,48.1
2019-05-17T18:57:28.422Z,48.1
2019-05-17T19:02:28.709Z,48.1
2019-05-17T19:07:29.265Z,48
2019-05-17T19:12:29.611Z,48
2019-05-17T19:17:30.034Z,48
2019-05-17T19:22:30.344Z,47.9
2019-05-17T19:27:30.629Z,47.9
2019-05-17T19:32:30.977Z,47.9
2019-05-17T19:37:31.293Z,47.8
2019-05-17T19:42:31.804Z,47.8
2019-05-17T19:47:33.313Z,47.7
2019-05-17T19:52:33.574Z,47.7
2019-05-17T19:57:34.051Z,47.7
2019-05-17T20:02:34.361Z,47.6
2019-05-17T20:07:38.285Z,47.6
2019-05-17T20:12:39.606Z,47.6
2019-05-17T20:17:39.849Z,47.5
2019-05-17T20:22:41.542Z,47.5
2019-05-17T20:27:41.795Z,47.4
2019-05-17T20:32:43.276Z,47.4
2019-05-17T20:37:43.524Z,47.4
2019-05-17T20:42:43.770Z,47.3
2019-05-17T20:47:44.016Z,47.3
2019-05-17T20:52:44.282Z,47.2
2019-05-17T20:57:44.510Z,47.2
2019-05-17T21:02:44.769Z,47.2
2019-05-17T21:07:45.038Z,47.1
2019-05-17T21:12:45.302Z,47.1
2019-05-17T21:17:45.545Z,47.1
2019-05-17T21:22:45.777Z,47
2019-05-17T21:27:46.032Z,47
2019-05-17T21:32:46.307Z,46.9
2019-05-17T21:37:46.586Z,46.9
2019-05-17T21:42:46.848Z,46.9
2019-05-17T21:47:47.092Z,46.8
2019-05-17T21:52:48.061Z,46.8
2019-05-17T21:57:48.349Z,46.7
2019-05-17T22:02:48.610Z,46.7
2019-05-17T22:07:48.843Z,46.7
2019-05-17T22:12:49.095Z,46.6
2019-05-17T22:17:49.356Z,46.6
2019-05-17T22:22:49.614Z,46.6
2019-05-17T22:27:50.595Z,46.5
2019-05-17T22:32:50.863Z,46.4
2019-05-17T22:37:51.151Z,46.4
2019-05-17T22:42:52.093Z,46.4
2019-05-17T22:47:52.340Z,46.3
2019-05-17T22:52:52.583Z,46.3
2019-05-17T22:57:52.839Z,46.2
2019-05-17T23:02:53.079Z,46.2
2019-05-17T23:07:53.311Z,46.2
2019-05-17T23:12:53.551Z,46.1
2019-05-17T23:17:53.780Z,46.1
2019-05-17T23:22:54.018Z,46.1
2019-05-17T23:27:54.270Z,46
2019-05-17T23:32:54.516Z,46
2019-05-17T23:37:54.740Z,45.9
2019-05-17T23:42:56.199Z,45.9
2019-05-17T23:47:57.176Z,45.9
2019-05-17T23:52:57.412Z,45.8
2019-05-17T23:57:57.647Z,45.8
